BIRK

Reykjavik Airport

Reykjavik, Iceland
TAF BIRK 191322Z 1915/2015 22013KT 9999 SHSN SCT020 BKN030 TX02/1915Z TNM02/2003Z TEMPO 1915/2010 22020G30KT 2000 SHSN BKN015CB BECMG 2006/2008 24030G40KT BECMG 2012/2014 22015KT
Issued Valid From Valid To
Jan-19 @ 13:22 UTC
(4 hours ago)
Jan-19 @ 15:00 UTC
(3 hours ago)
Jan-20 @ 15:00 UTC
(in 21 hours)
Jan-19 @ 15:00 to Jan-20 @ 06:00
TAF BIRK 191322Z 1915/2015 22013KT 9999 SHSN SCT020 BKN030 TX02/1915Z TNM02/2003Z
Wind Visibility Clouds Conditions
220° at 13 knots 10,000+ meters
  • Scattered at 2,000' AGL
  • Broken at 3,000' AGL
  • Snow
Temporary Jan-19 @ 15:00 to Jan-20 @ 10:00
TEMPO 1915/2010 22020G30KT 2000 SHSN BKN015CB
Wind Visibility Clouds Conditions
220° at 20 knots
 Gusting to 30 knots
1,996 meters
  • Broken at 1,500' AGL
  • Snow
Becoming Jan-20 @ 06:00 to Jan-20 @ 12:00
BECMG 2006/2008 24030G40KT
Wind Visibility Clouds Conditions
240° at 30 knots
 Gusting to 40 knots
10,000+ meters
  • Scattered at 2,000' AGL
  • Broken at 3,000' AGL
  • Snow
Becoming Jan-20 @ 12:00 to Jan-20 @ 15:00
BECMG 2012/2014 22015KT
Wind Visibility Clouds Conditions
220° at 15 knots 10,000+ meters
  • Scattered at 2,000' AGL
  • Broken at 3,000' AGL
  • Snow
TAF BIRK 191322Z 1915/2015 22013KT 9999 SHSN SCT020 BKN030 TX02/1915Z TNM02/2003Z TEMPO 1915/2010 22020G30KT 2000 SHSN BKN015CB BECMG 2006/2008 24030G40KT BECMG 2012/2014 22015KT
Issued Jan-19 @ 13:22 UTC
(4 hours ago)
Valid From Jan-19 @ 15:00 UTC
(3 hours ago)
Valid To Jan-20 @ 15:00 UTC
(in 21 hours)
Jan-19 @ 15:00 - Jan-20 @ 06:00
Wind Visibility
220° at 13 knots 10,000+ meters
Clouds
  • Scattered at 2,000' AGL
  • Broken at 3,000' AGL
Conditions
  • Snow
Temporary Jan-19 @ 15:00 - Jan-20 @ 10:00
Wind Visibility
220° at 20 knots
 Gusting to 30 knots
1,996 meters
Clouds
  • Broken at 1,500' AGL
Conditions
  • Snow
Becoming Jan-20 @ 06:00 - Jan-20 @ 12:00
Wind Visibility
240° at 30 knots
 Gusting to 40 knots
10,000+ meters
Clouds
  • Scattered at 2,000' AGL
  • Broken at 3,000' AGL
Conditions
  • Snow
Becoming Jan-20 @ 12:00 - Jan-20 @ 15:00
Wind Visibility
220° at 15 knots 10,000+ meters
Clouds
  • Scattered at 2,000' AGL
  • Broken at 3,000' AGL
Conditions
  • Snow